Time;durP1;ratioP1;P1;durP2;ratioP2;P2;SDS_P1;SDS_P2;PMS_P1;PMS_P2;Temp;Humidity;BMP_temperature;BMP_pressure;BME280_temperature;BME280_humidity;BME280_pressure;Samples;Min_cycle;Max_cycle;Signal;HPM_P1;HPM_P2
2023/02/16 00:02:03;;;;;;;42.47;32.33;;;;;;;7.02;100.00;102335.53;5224874;28;20072;-76
2023/02/16 00:04:34;;;;;;;41.63;30.60;;;;;;;7.04;100.00;102341.50;5224285;28;20505;-76
2023/02/16 00:07:05;;;;;;;42.45;30.48;;;;;;;7.03;100.00;102332.84;5221171;28;20057;-76
2023/02/16 00:09:37;;;;;;;46.30;31.80;;;;;;;6.98;100.00;102337.41;5221942;28;20026;-76
2023/02/16 00:15:19;;;;;;;40.08;30.77;;;;;;;7.05;100.00;102332.78;5230156;28;20041;-76
2023/02/16 00:17:51;;;;;;;40.83;30.65;;;;;;;6.89;100.00;102342.19;5225133;28;20045;-76
2023/02/16 00:20:22;;;;;;;41.97;32.33;;;;;;;6.81;100.00;102332.97;5222229;28;20021;-76
2023/02/16 00:22:53;;;;;;;42.17;31.00;;;;;;;6.81;100.00;102338.16;5221209;28;20394;-76
2023/02/16 00:25:25;;;;;;;42.90;31.27;;;;;;;6.77;100.00;102322.75;5218657;28;20033;-76
2023/02/16 00:27:56;;;;;;;41.05;30.83;;;;;;;6.84;100.00;102339.78;5218977;28;20121;-76
2023/02/16 00:30:27;;;;;;;49.47;31.30;;;;;;;6.76;100.00;102339.31;5223975;28;20037;-76
2023/02/16 00:33:00;;;;;;;43.50;31.77;;;;;;;6.73;100.00;102337.66;5225020;28;20495;-76
2023/02/16 00:35:31;;;;;;;40.33;30.23;;;;;;;6.72;100.00;102337.75;5222314;28;21073;-76
2023/02/16 00:38:02;;;;;;;42.80;31.67;;;;;;;6.70;100.00;102336.97;5221640;28;20033;-76
2023/02/16 00:40:33;;;;;;;42.22;30.77;;;;;;;6.64;100.00;102342.47;5213145;28;20041;-76
2023/02/16 00:43:05;;;;;;;41.95;32.10;;;;;;;6.59;100.00;102334.81;5222274;28;20033;-76
2023/02/16 00:45:37;;;;;;;43.95;31.98;;;;;;;6.56;100.00;102333.22;5220831;28;20079;-76
2023/02/16 00:48:08;;;;;;;42.00;31.02;;;;;;;6.56;100.00;102328.03;5224224;28;20550;-76
2023/02/16 00:50:39;;;;;;;39.15;31.42;;;;;;;6.51;100.00;102332.56;5220913;28;20053;-76
2023/02/16 00:53:11;;;;;;;41.40;31.08;;;;;;;6.55;100.00;102330.66;5219012;28;20029;-76
2023/02/16 00:55:43;;;;;;;40.63;30.35;;;;;;;6.54;100.00;102334.19;5231929;28;20042;-76
2023/02/16 00:58:25;;;;;;;39.13;30.38;;;;;;;6.57;100.00;102334.06;5245445;28;20040;-76
2023/02/16 01:01:05;;;;;;;39.08;31.55;;;;;;;6.57;100.00;102326.25;5242564;28;20084;-76
2023/02/16 01:03:37;;;;;;;41.70;31.35;;;;;;;6.47;100.00;102331.00;5241212;28;20036;-76
2023/02/16 01:12:03;;;;;;;39.10;31.00;;;;;;;6.45;100.00;102314.63;5240563;28;20040;-76
2023/02/16 01:14:34;;;;;;;42.80;32.53;;;;;;;6.47;100.00;102318.00;5223385;28;20044;-76
2023/02/16 01:17:05;;;;;;;41.50;31.38;;;;;;;6.47;100.00;102320.59;5241676;28;20033;-76
2023/02/16 01:19:37;;;;;;;42.45;31.75;;;;;;;6.41;100.00;102307.88;5241129;28;20078;-76
2023/02/16 01:22:08;;;;;;;40.67;32.20;;;;;;;6.42;100.00;102312.16;5224537;28;20399;-76
2023/02/16 01:24:39;;;;;;;42.47;31.80;;;;;;;6.41;100.00;102309.63;5245764;28;20048;-76
2023/02/16 01:27:12;;;;;;;44.08;33.35;;;;;;;6.42;100.00;102306.94;5242570;28;20092;-76
2023/02/16 01:29:43;;;;;;;43.42;30.85;;;;;;;6.40;100.00;102313.13;5241897;28;20017;-76
2023/02/16 01:32:15;;;;;;;39.13;30.85;;;;;;;6.41;100.00;102309.63;5223885;28;20029;-76
2023/02/16 01:34:46;;;;;;;41.30;32.15;;;;;;;6.41;100.00;102305.25;5245613;28;20108;-76
2023/02/16 01:37:18;;;;;;;39.15;31.23;;;;;;;6.39;100.00;102296.66;5240779;28;20386;-76
2023/02/16 01:39:49;;;;;;;43.03;32.63;;;;;;;6.39;100.00;102294.06;5241977;28;20024;-76
2023/02/16 01:43:02;;;;;;;41.40;31.48;;;;;;;6.73;100.00;102282.97;5238549;28;20037;-76
2023/02/16 01:45:39;;;;;;;43.42;32.72;;;;;;;6.46;100.00;102269.44;5157638;28;20039;-76
2023/02/16 01:48:21;;;;;;;40.88;31.10;;;;;;;6.50;100.00;102268.41;5233037;28;20037;-76
2023/02/16 01:51:04;;;;;;;46.13;34.20;;;;;;;6.48;100.00;102267.63;5221059;28;20036;-76
2023/02/16 01:53:42;;;;;;;43.80;31.92;;;;;;;6.42;100.00;102270.50;5241264;28;20037;-76
2023/02/16 01:56:28;;;;;;;44.22;32.75;;;;;;;6.41;100.00;102276.63;5238153;28;20147;-76
2023/02/16 01:59:08;;;;;;;45.05;32.05;;;;;;;6.43;100.00;102273.94;5244348;28;20052;-76
2023/02/16 02:01:47;;;;;;;42.65;31.58;;;;;;;6.35;100.00;102261.28;5243550;28;20479;-76
2023/02/16 02:07:38;;;;;;;44.83;33.45;;;;;;;6.24;100.00;102264.34;5166388;28;20099;-76
2023/02/16 02:10:20;;;;;;;45.40;33.00;;;;;;;6.26;100.00;102269.50;5166286;28;20035;-76
2023/02/16 02:12:58;;;;;;;43.63;32.53;;;;;;;6.26;100.00;102272.09;5199101;28;20557;-76
2023/02/16 02:15:31;;;;;;;42.33;32.38;;;;;;;6.20;100.00;102265.38;5223908;28;20029;-76
2023/02/16 02:18:02;;;;;;;47.37;33.20;;;;;;;6.21;100.00;102267.09;5239968;28;20036;-76
2023/02/16 02:24:23;;;;;;;47.00;33.47;;;;;;;6.44;100.00;102253.06;5241151;28;20045;-76
2023/02/16 02:27:25;;;;;;;43.90;32.95;;;;;;;6.42;100.00;102259.25;5241857;28;20017;-76
2023/02/16 02:30:25;;;;;;;47.33;33.50;;;;;;;6.41;100.00;102254.97;5239971;28;20069;-76
2023/02/16 02:33:35;;;;;;;41.92;31.17;;;;;;;6.50;100.00;102249.31;5245224;28;20391;-76
2023/02/16 02:36:36;;;;;;;42.88;32.38;;;;;;;6.34;100.00;102238.75;5232341;28;20748;-76
2023/02/16 02:39:37;;;;;;;45.35;32.70;;;;;;;6.44;100.00;102244.38;5240674;28;20036;-76
2023/02/16 02:42:23;;;;;;;45.47;34.47;;;;;;;6.26;100.00;102236.50;5241751;28;20035;-76
2023/02/16 02:45:01;;;;;;;43.50;31.70;;;;;;;6.12;100.00;102233.66;5239842;28;20304;-76
2023/02/16 02:47:44;;;;;;;45.00;33.70;;;;;;;6.20;100.00;102231.56;5239988;28;20033;-76
2023/02/16 02:50:31;;;;;;;45.10;33.78;;;;;;;6.27;100.00;102232.97;5239535;28;20036;-76
2023/02/16 02:53:06;;;;;;;47.85;33.65;;;;;;;6.11;100.00;102231.13;5239217;28;20029;-76
2023/02/16 03:01:28;;;;;;;48.58;34.55;;;;;;;6.03;100.00;102224.50;5243083;28;20619;-76
2023/02/16 03:04:00;;;;;;;44.22;33.38;;;;;;;6.04;100.00;102225.34;5223293;28;20159;-76
2023/02/16 03:06:42;;;;;;;46.93;34.00;;;;;;;6.19;100.00;102222.06;5239238;28;20035;-76
2023/02/16 03:09:15;;;;;;;50.40;35.15;;;;;;;6.03;100.00;102226.28;5245486;28;20286;-76
2023/02/16 03:14:49;;;;;;;47.50;33.80;;;;;;;6.15;100.00;102224.88;5244769;28;20033;-76
2023/02/16 03:31:43;;;;;;;46.80;35.65;;;;;;;5.91;100.00;102208.53;5243762;28;20061;-76
2023/02/16 03:34:16;;;;;;;47.17;35.05;;;;;;;5.91;100.00;102214.59;5227945;28;20025;-76
2023/02/16 03:36:53;;;;;;;48.13;34.88;;;;;;;5.93;100.00;102215.41;5248350;28;20523;-76
2023/02/16 03:39:30;;;;;;;49.80;36.17;;;;;;;5.91;100.00;102193.81;5231001;28;20818;-76
2023/02/16 03:42:01;;;;;;;49.22;36.58;;;;;;;5.75;100.00;102190.16;5244344;28;20411;-76
2023/02/16 03:44:32;;;;;;;47.97;35.10;;;;;;;5.83;100.00;102203.66;5244344;28;20036;-76
2023/02/16 03:47:04;;;;;;;47.17;35.10;;;;;;;5.86;100.00;102199.19;5226280;28;20071;-76
2023/02/16 03:49:35;;;;;;;46.45;35.70;;;;;;;5.89;100.00;102199.97;5244954;28;20517;-76
2023/02/16 03:52:06;;;;;;;47.75;35.28;;;;;;;5.82;100.00;102204.59;5245395;28;20033;-76
2023/02/16 03:54:37;;;;;;;51.63;37.40;;;;;;;5.82;100.00;102208.03;5240912;28;20029;-76
2023/02/16 03:57:09;;;;;;;48.00;36.10;;;;;;;5.85;100.00;102210.50;5243402;28;20034;-76
2023/02/16 03:59:40;;;;;;;48.85;35.70;;;;;;;5.90;100.00;102199.88;5243691;28;20056;-76
2023/02/16 04:02:11;;;;;;;47.85;36.75;;;;;;;5.92;100.00;102208.53;5244611;28;20390;-76
2023/02/16 04:04:43;;;;;;;53.67;38.10;;;;;;;5.86;100.00;102203.53;5242259;28;20722;-76
2023/02/16 04:07:14;;;;;;;50.35;35.80;;;;;;;5.92;100.00;102211.13;5243935;28;20021;-76
2023/02/16 04:09:45;;;;;;;47.80;35.80;;;;;;;5.89;100.00;102211.22;5243137;28;20067;-76
2023/02/16 04:12:35;;;;;;;53.53;35.88;;;;;;;5.88;100.00;102201.72;5247666;28;20067;-76
2023/02/16 04:15:11;;;;;;;49.45;36.28;;;;;;;5.92;100.00;102200.72;5244300;28;20064;-76
2023/02/16 04:17:43;;;;;;;50.80;37.35;;;;;;;5.94;100.00;102211.88;5240651;28;20039;-76
2023/02/16 04:20:18;;;;;;;51.13;37.55;;;;;;;5.98;100.00;102207.38;5248189;28;20033;-76
2023/02/16 04:22:50;;;;;;;45.85;34.90;;;;;;;5.89;100.00;102211.22;5241916;28;20040;-76
2023/02/16 04:25:22;;;;;;;48.90;37.25;;;;;;;5.90;100.00;102218.09;5228247;28;20025;-76
2023/02/16 04:27:54;;;;;;;46.22;35.75;;;;;;;5.84;100.00;102211.41;5243903;28;20387;-76
2023/02/16 04:30:28;;;;;;;48.55;36.05;;;;;;;5.96;100.00;102209.22;5240443;28;20103;-76
2023/02/16 04:32:59;;;;;;;49.90;38.30;;;;;;;5.91;100.00;102219.81;5227876;28;20032;-76
2023/02/16 04:35:31;;;;;;;52.25;37.03;;;;;;;5.96;100.00;102214.44;5245407;28;20482;-76
2023/02/16 04:38:02;;;;;;;51.08;37.83;;;;;;;5.97;100.00;102223.91;5242229;28;20025;-76
2023/02/16 04:40:33;;;;;;;50.08;37.10;;;;;;;5.94;100.00;102213.63;5241937;28;20029;-76
2023/02/16 04:43:04;;;;;;;51.25;38.35;;;;;;;5.97;100.00;102205.72;5244413;28;20029;-76
2023/02/16 04:45:36;;;;;;;47.47;36.47;;;;;;;5.94;100.00;102201.47;5242390;28;20052;-76
2023/02/16 04:48:07;;;;;;;48.70;35.95;;;;;;;6.07;100.00;102215.66;5241166;28;20044;-76
2023/02/16 04:50:38;;;;;;;47.17;35.35;;;;;;;6.07;100.00;102218.25;5243956;28;20112;-76
2023/02/16 04:53:10;;;;;;;49.00;36.63;;;;;;;6.05;100.00;102220.06;5242967;28;20040;-76
2023/02/16 04:55:46;;;;;;;46.88;35.53;;;;;;;6.20;100.00;102223.75;5246104;28;20071;-76
2023/02/16 04:58:18;;;;;;;50.88;35.70;;;;;;;6.06;100.00;102224.38;5241021;28;20025;-76
2023/02/16 05:00:49;;;;;;;50.20;36.55;;;;;;;6.06;100.00;102219.19;5240954;28;20032;-76
2023/02/16 05:03:20;;;;;;;48.88;37.28;;;;;;;6.06;100.00;102211.38;5241182;28;20036;-76
2023/02/16 05:05:52;;;;;;;48.70;37.53;;;;;;;6.14;100.00;102217.97;5238618;28;20033;-76
2023/02/16 05:08:23;;;;;;;53.60;36.47;;;;;;;6.14;100.00;102216.25;5227300;28;20471;-77
2023/02/16 05:16:34;;;;;;;45.72;34.58;;;;;;;6.17;100.00;102197.03;5240843;28;20033;-76
2023/02/16 05:19:05;;;;;;;47.10;35.53;;;;;;;6.22;100.00;102206.31;5241285;28;20118;-77
2023/02/16 05:21:36;;;;;;;48.38;34.45;;;;;;;6.27;100.00;102216.53;5240876;28;20016;-77
2023/02/16 05:24:10;;;;;;;44.05;33.28;;;;;;;6.27;100.00;102188.72;5244254;28;20029;-77
2023/02/16 05:26:41;;;;;;;45.20;35.08;;;;;;;6.28;100.00;102200.00;5240568;28;20375;-77
2023/02/16 05:29:13;;;;;;;47.90;35.95;;;;;;;6.30;100.00;102196.41;5235853;28;20033;-77
2023/02/16 05:31:44;;;;;;;48.58;35.20;;;;;;;6.32;100.00;102218.00;5237423;28;20052;-77
2023/02/16 05:34:15;;;;;;;46.13;34.53;;;;;;;6.27;100.00;102213.91;5243209;28;20127;-76
2023/02/16 05:36:47;;;;;;;46.70;35.63;;;;;;;6.33;100.00;102196.28;5223786;28;20021;-77
2023/02/16 05:39:18;;;;;;;43.10;35.05;;;;;;;6.45;100.00;102176.66;5239884;28;20474;-76
2023/02/16 05:41:50;;;;;;;45.85;34.97;;;;;;;6.45;100.00;102179.25;5243085;28;20025;-77
2023/02/16 05:44:21;;;;;;;45.80;34.78;;;;;;;6.42;100.00;102181.16;5243016;28;20031;-77
2023/02/16 05:46:53;;;;;;;45.30;33.63;;;;;;;6.52;100.00;102183.25;5242839;28;20029;-77
2023/02/16 05:49:24;;;;;;;46.75;34.33;;;;;;;6.55;100.00;102197.88;5224331;28;20057;-77
2023/02/16 05:51:55;;;;;;;46.85;34.47;;;;;;;6.53;100.00;102204.94;5244086;28;20032;-77
2023/02/16 05:54:27;;;;;;;46.20;34.63;;;;;;;6.50;100.00;102205.06;5241326;28;20029;-77
2023/02/16 05:56:58;;;;;;;46.33;34.13;;;;;;;6.55;100.00;102190.06;5241391;28;20036;-77
2023/02/16 05:59:30;;;;;;;50.15;34.45;;;;;;;6.54;100.00;102186.63;5243477;28;20108;-78
2023/02/16 06:02:02;;;;;;;45.55;34.85;;;;;;;6.46;100.00;102199.16;5239377;28;20087;-76
2023/02/16 06:04:34;;;;;;;46.00;34.57;;;;;;;6.53;100.00;102195.34;5241785;28;20073;-77
2023/02/16 06:07:06;;;;;;;43.55;33.60;;;;;;;6.54;100.00;102183.19;5238665;28;20171;-76
2023/02/16 06:09:37;;;;;;;43.75;33.28;;;;;;;6.53;100.00;102190.16;5242999;28;20017;-77
2023/02/16 06:12:08;;;;;;;43.88;33.70;;;;;;;6.54;100.00;102191.00;5243595;28;20445;-77
2023/02/16 06:14:39;;;;;;;42.53;33.00;;;;;;;6.53;100.00;102171.09;5247502;28;20374;-77
2023/02/16 06:17:11;;;;;;;42.97;33.42;;;;;;;6.60;100.00;102179.47;5246032;28;20444;-76
2023/02/16 06:19:42;;;;;;;46.50;36.30;;;;;;;6.53;100.00;102176.28;5246593;28;20395;-77
2023/02/16 06:22:13;;;;;;;45.53;34.03;;;;;;;6.56;100.00;102182.19;5216475;28;20491;-77
2023/02/16 06:24:45;;;;;;;43.50;34.05;;;;;;;6.54;100.00;102171.00;5223985;28;20033;-77
2023/02/16 06:27:16;;;;;;;43.67;33.15;;;;;;;6.59;100.00;102178.59;5244756;28;20038;-77
2023/02/16 06:29:47;;;;;;;45.55;34.45;;;;;;;6.58;100.00;102177.75;5221943;28;20120;-77
2023/02/16 06:32:19;;;;;;;41.70;32.35;;;;;;;6.58;100.00;102188.16;5233101;28;20029;-77
2023/02/16 06:34:50;;;;;;;40.20;32.03;;;;;;;6.63;100.00;102206.22;5220542;28;20037;-76
2023/02/16 06:37:24;;;;;;;46.58;33.55;;;;;;;6.62;100.00;102199.28;5225119;28;20355;-77
2023/02/16 06:39:55;;;;;;;44.67;34.00;;;;;;;6.64;100.00;102205.28;5237682;28;20152;-77
2023/02/16 06:42:26;;;;;;;43.90;33.15;;;;;;;6.66;100.00;102210.41;5240677;28;20028;-77
2023/02/16 06:44:58;;;;;;;44.00;33.05;;;;;;;6.71;100.00;102205.84;5246322;28;20462;-77
2023/02/16 06:47:29;;;;;;;41.28;31.90;;;;;;;6.72;100.00;102200.56;5247815;28;20355;-77
2023/02/16 06:50:01;;;;;;;42.33;32.63;;;;;;;6.70;100.00;102215.41;5244141;28;20087;-77
2023/02/16 06:52:32;;;;;;;42.42;32.50;;;;;;;6.71;100.00;102224.09;5224896;28;20104;-77
2023/02/16 06:55:04;;;;;;;41.33;32.97;;;;;;;6.70;100.00;102222.38;5248113;28;20695;-76
2023/02/16 06:57:35;;;;;;;44.85;32.92;;;;;;;6.71;100.00;102222.31;5228657;28;20032;-77
2023/02/16 07:00:07;;;;;;;43.65;33.50;;;;;;;6.77;100.00;102219.41;5241359;28;20123;-76
2023/02/16 07:02:38;;;;;;;45.13;33.15;;;;;;;6.70;100.00;102206.75;5242058;28;20068;-76
2023/02/16 07:05:10;;;;;;;42.20;33.65;;;;;;;6.80;100.00;102221.03;5250184;28;20029;-76
2023/02/16 07:07:41;;;;;;;41.78;32.95;;;;;;;6.77;100.00;102218.56;5242501;28;21132;-76
2023/02/16 07:10:13;;;;;;;43.63;32.85;;;;;;;6.75;100.00;102223.03;5247327;28;20021;-76
2023/02/16 07:12:45;;;;;;;44.45;32.78;;;;;;;6.80;100.00;102223.63;5248117;28;20754;-77
2023/02/16 07:15:17;;;;;;;42.22;32.90;;;;;;;6.78;100.00;102221.13;5246075;28;20060;-77
2023/02/16 07:17:48;;;;;;;42.15;33.17;;;;;;;6.81;100.00;102223.56;5245791;28;20064;-77
2023/02/16 07:20:19;;;;;;;49.67;34.03;;;;;;;6.86;100.00;102212.94;5242730;28;20552;-76
2023/02/16 07:22:50;;;;;;;44.50;33.53;;;;;;;6.88;100.00;102216.31;5217203;28;20026;-76
2023/02/16 07:25:24;;;;;;;43.70;33.88;;;;;;;6.95;100.00;102225.53;5242563;28;20041;-77
2023/02/16 07:27:55;;;;;;;42.53;32.60;;;;;;;6.91;100.00;102221.38;5239728;28;20025;-77
2023/02/16 07:30:26;;;;;;;42.00;32.30;;;;;;;6.98;100.00;102229.75;5243759;28;20052;-77
2023/02/16 07:32:58;;;;;;;44.17;33.92;;;;;;;7.01;100.00;102230.44;5242334;28;20017;-77
2023/02/16 07:35:29;;;;;;;41.28;33.85;;;;;;;7.02;100.00;102228.69;5244083;28;20029;-77
2023/02/16 07:38:01;;;;;;;41.90;32.92;;;;;;;7.03;100.00;102231.22;5244633;28;20035;-77
2023/02/16 07:40:33;;;;;;;41.47;33.13;;;;;;;7.06;100.00;102219.81;5243820;28;20037;-77
2023/02/16 07:43:06;;;;;;;39.47;31.25;;;;;;;7.05;100.00;102211.16;5245226;28;20112;-77
2023/02/16 07:45:38;;;;;;;42.90;31.92;;;;;;;7.11;100.00;102230.00;5231140;28;20053;-77
2023/02/16 07:48:09;;;;;;;42.25;32.50;;;;;;;7.17;100.00;102245.34;5241793;28;20058;-77
2023/02/16 07:50:40;;;;;;;41.80;32.47;;;;;;;7.18;100.00;102245.25;5226366;28;20268;-77
2023/02/16 07:53:12;;;;;;;43.75;32.58;;;;;;;7.19;100.00;102243.50;5244904;28;20402;-77
2023/02/16 07:55:45;;;;;;;38.67;31.73;;;;;;;7.27;100.00;102239.63;5221158;28;20562;-77
2023/02/16 07:58:26;;;;;;;38.78;30.73;;;;;;;7.29;100.00;102227.34;5220975;28;20443;-77
2023/02/16 08:01:09;;;;;;;38.53;30.88;;;;;;;7.47;100.00;102229.97;5224465;28;20021;-77
2023/02/16 08:03:40;;;;;;;37.78;30.70;;;;;;;7.38;100.00;102228.66;5223329;28;20173;-77
2023/02/16 08:06:12;;;;;;;35.58;29.42;;;;;;;7.39;100.00;102221.69;5225388;28;20033;-77
2023/02/16 08:08:44;;;;;;;39.35;30.70;;;;;;;7.41;100.00;102228.50;5226104;28;20437;-77
2023/02/16 08:11:19;;;;;;;37.25;30.70;;;;;;;7.50;100.00;102238.50;5224800;28;20149;-77
2023/02/16 08:13:51;;;;;;;39.85;30.75;;;;;;;7.42;100.00;102227.56;5224164;28;20041;-77
2023/02/16 08:16:25;;;;;;;39.22;31.25;;;;;;;7.53;100.00;102230.50;5224213;28;20390;-77
2023/02/16 08:18:58;;;;;;;35.92;29.23;;;;;;;7.53;100.00;102230.50;5224687;28;20037;-77
2023/02/16 08:21:32;;;;;;;38.92;29.40;;;;;;;7.55;100.00;102244.31;5215278;28;20095;-77
2023/02/16 08:24:06;;;;;;;34.88;29.55;;;;;;;7.65;100.00;102243.84;5225595;28;20025;-77
2023/02/16 08:26:41;;;;;;;34.53;28.10;;;;;;;7.74;100.00;102246.84;5225051;28;20060;-77
2023/02/16 08:29:13;;;;;;;38.83;30.98;;;;;;;7.70;100.00;102257.53;5223184;28;20059;-77
2023/02/16 08:31:46;;;;;;;36.88;28.77;;;;;;;7.72;100.00;102256.50;5224372;28;20053;-77
2023/02/16 08:34:19;;;;;;;34.47;29.30;;;;;;;7.75;100.00;102250.31;5224515;28;20022;-77
2023/02/16 08:36:55;;;;;;;37.45;29.77;;;;;;;7.79;100.00;102254.44;5220714;28;20235;-77
2023/02/16 08:39:30;;;;;;;39.15;30.00;;;;;;;7.80;100.00;102243.94;5219563;28;20101;-77
2023/02/16 08:42:01;;;;;;;35.47;29.27;;;;;;;7.87;100.00;102256.66;5218003;28;20034;-77
2023/02/16 08:44:32;;;;;;;37.75;30.25;;;;;;;7.90;100.00;102244.31;5225371;28;20459;-77
2023/02/16 08:47:04;;;;;;;34.53;28.50;;;;;;;7.96;100.00;102251.81;5222627;28;20132;-77
2023/02/16 08:49:35;;;;;;;33.92;27.15;;;;;;;8.02;100.00;102251.50;5223747;28;20091;-77
2023/02/16 08:52:08;;;;;;;37.65;29.92;;;;;;;8.05;100.00;102263.56;5219447;28;20053;-77
2023/02/16 08:54:40;;;;;;;36.58;29.10;;;;;;;8.09;100.00;102261.63;5221539;28;20368;-77
2023/02/16 08:57:12;;;;;;;34.58;27.77;;;;;;;8.06;100.00;102257.41;5240088;28;20111;-77
2023/02/16 08:59:43;;;;;;;33.42;28.48;;;;;;;8.09;100.00;102259.84;5242192;28;20021;-77
2023/02/16 09:02:16;;;;;;;36.55;28.60;;;;;;;8.14;100.00;102267.44;5225599;28;20029;-77
2023/02/16 09:04:48;;;;;;;35.55;28.70;;;;;;;8.24;100.00;102273.88;5239872;28;20031;-77
2023/02/16 09:07:21;;;;;;;35.33;28.23;;;;;;;8.26;100.00;102278.13;5242104;28;20021;-77
2023/02/16 09:09:52;;;;;;;33.40;29.63;;;;;;;8.37;100.00;102285.44;5242938;28;20032;-77
2023/02/16 09:12:23;;;;;;;32.75;28.05;;;;;;;8.38;100.00;102288.88;5245338;28;20021;-77
2023/02/16 09:14:55;;;;;;;36.95;29.38;;;;;;;8.44;100.00;102285.91;5241466;28;20037;-77
2023/02/16 09:17:27;;;;;;;38.13;27.70;;;;;;;8.44;100.00;102272.88;5242956;28;20149;-77
2023/02/16 09:19:59;;;;;;;35.83;28.92;;;;;;;8.43;100.00;102274.63;5240892;28;20044;-77
2023/02/16 09:22:31;;;;;;;37.10;28.40;;;;;;;8.44;100.00;102281.53;5242745;28;20049;-77
2023/02/16 09:25:03;;;;;;;34.10;28.70;;;;;;;8.45;100.00;102280.63;5242185;28;20108;-77
2023/02/16 09:27:35;;;;;;;37.47;28.48;;;;;;;8.41;100.00;102279.13;5241231;28;20032;-77
2023/02/16 09:30:08;;;;;;;30.88;27.02;;;;;;;8.50;100.00;102289.06;5242394;28;20026;-77
2023/02/16 09:32:41;;;;;;;33.35;27.63;;;;;;;8.49;100.00;102284.78;5244063;28;20021;-77
2023/02/16 09:35:12;;;;;;;36.03;29.02;;;;;;;8.47;100.00;102275.31;5243229;28;20089;-77
2023/02/16 09:37:43;;;;;;;36.28;29.55;;;;;;;8.49;100.00;102274.31;5240976;28;20474;-77
2023/02/16 09:40:15;;;;;;;33.17;27.83;;;;;;;8.51;100.00;102269.00;5242571;28;20018;-77
2023/02/16 09:42:52;;;;;;;36.55;29.45;;;;;;;8.55;100.00;102260.06;5240512;28;20044;-77
2023/02/16 09:45:25;;;;;;;35.13;28.35;;;;;;;8.49;100.00;102255.19;5233834;28;20071;-77
2023/02/16 09:47:58;;;;;;;;;;;;;;;9.06;100.00;102263.41;5224904;28;20083;-77
2023/02/16 09:50:33;;;;;;;36.05;28.67;;;;;;;8.53;100.00;102252.34;5242249;28;19931;-77
2023/02/16 09:53:08;;;;;;;36.08;29.02;;;;;;;8.52;100.00;102263.72;5242562;28;20470;-77
2023/02/16 09:55:53;;;;;;;35.53;29.38;;;;;;;8.60;100.00;102265.03;5244777;28;20091;-77
2023/02/16 09:58:32;;;;;;;39.92;31.95;;;;;;;8.61;100.00;102279.81;5240857;28;20028;-77
2023/02/16 10:01:18;;;;;;;35.50;29.35;;;;;;;8.68;100.00;102279.41;5241211;28;20029;-77
2023/02/16 10:04:08;;;;;;;38.35;29.58;;;;;;;8.51;100.00;102271.63;5240863;28;20550;-77
2023/02/16 10:06:45;;;;;;;38.13;31.45;;;;;;;8.53;100.00;102272.38;5241371;28;20509;-77
2023/02/16 10:09:19;;;;;;;36.42;29.73;;;;;;;8.51;100.00;102267.22;5241051;28;20052;-77
2023/02/16 10:12:03;;;;;;;37.78;30.77;;;;;;;8.53;100.00;102269.78;5241725;28;20018;-78
2023/02/16 10:14:42;;;;;;;37.60;30.85;;;;;;;8.58;100.00;102270.38;5240975;28;20024;-78
2023/02/16 10:17:40;;;;;;;36.05;30.95;;;;;;;8.74;100.00;102275.59;5240474;28;20025;-77
2023/02/16 10:20:15;;;;;;;40.15;31.73;;;;;;;8.51;100.00;102272.47;5247981;28;20390;-77
2023/02/16 10:22:57;;;;;;;38.25;30.55;;;;;;;8.64;100.00;102266.59;5237500;28;20029;-77
2023/02/16 10:25:40;;;;;;;37.53;30.95;;;;;;;8.67;100.00;102266.41;5230049;28;20423;-77
2023/02/16 10:28:14;;;;;;;;;;;;;;;9.24;100.00;102269.34;5247718;28;20036;-77
2023/02/16 10:30:52;;;;;;;35.65;30.10;;;;;;;8.85;100.00;102261.97;5244002;28;19951;-78
2023/02/16 10:33:41;;;;;;;36.53;30.38;;;;;;;8.85;100.00;102272.41;5244276;28;20036;-78
2023/02/16 10:36:42;;;;;;;36.47;29.42;;;;;;;9.04;100.00;102264.41;5237936;28;20033;-78
2023/02/16 10:39:40;;;;;;;35.67;29.90;;;;;;;9.04;100.00;102253.94;5246602;28;20035;-78
2023/02/16 10:42:23;;;;;;;36.55;31.05;;;;;;;8.93;100.00;102270.22;5245129;28;20060;-77
2023/02/16 10:45:05;;;;;;;;;;;;;;;9.47;100.00;102262.81;5246100;28;20029;-78
2023/02/16 10:47:42;;;;;;;38.85;31.65;;;;;;;9.03;100.00;102279.25;5247253;28;19913;-77
2023/02/16 10:50:35;;;;;;;36.75;30.17;;;;;;;9.22;100.00;102274.69;5246656;28;20021;-78
2023/02/16 10:53:17;;;;;;;36.03;30.00;;;;;;;9.09;100.00;102275.44;5247236;28;20076;-78
2023/02/16 10:55:48;;;;;;;34.17;30.40;;;;;;;8.93;100.00;102294.59;5246451;28;20503;-77
2023/02/16 10:58:25;;;;;;;35.70;29.67;;;;;;;9.01;100.00;102294.16;5228660;28;20029;-77
2023/02/16 11:01:17;;;;;;;36.15;31.02;;;;;;;9.19;100.00;102284.47;5243950;28;20033;-77
2023/02/16 11:03:51;;;;;;;37.85;30.33;;;;;;;8.96;100.00;102270.06;5245097;28;20025;-78
2023/02/16 11:06:27;;;;;;;36.60;31.65;;;;;;;8.84;100.00;102292.47;5250404;28;20021;-78
2023/02/16 11:09:01;;;;;;;37.85;31.63;;;;;;;8.78;100.00;102275.34;5250036;28;20021;-77
2023/02/16 11:11:38;;;;;;;40.00;32.20;;;;;;;8.90;100.00;102273.88;5246117;28;20040;-77
2023/02/16 11:14:22;;;;;;;38.58;32.92;;;;;;;9.02;100.00;102270.56;5249602;28;20610;-77
2023/02/16 11:17:11;;;;;;;37.20;31.85;;;;;;;8.98;100.00;102239.47;5249705;28;20028;-77
2023/02/16 11:20:28;;;;;;;38.53;31.33;;;;;;;9.27;100.00;102256.09;5251475;28;20058;-77
2023/02/16 11:23:32;;;;;;;39.58;32.30;;;;;;;9.22;100.00;102253.75;5173320;28;20052;-76
2023/02/16 11:26:05;;;;;;;37.55;31.20;;;;;;;9.08;100.00;102250.22;5253455;28;20442;-77
2023/02/16 11:28:43;;;;;;;39.53;31.58;;;;;;;9.08;100.00;102247.63;5249735;28;20029;-77
2023/02/16 11:31:26;;;;;;;37.17;32.55;;;;;;;9.18;100.00;102248.78;5252034;28;20083;-76
2023/02/16 11:34:12;;;;;;;40.03;32.75;;;;;;;9.31;100.00;102247.16;5247678;28;21031;-76
2023/02/16 11:36:46;;;;;;;40.45;31.80;;;;;;;9.34;100.00;102241.75;5248964;28;20477;-76
2023/02/16 11:39:24;;;;;;;37.65;31.35;;;;;;;9.57;100.00;102236.97;5253199;28;20041;-77
2023/02/16 11:41:57;;;;;;;39.38;31.98;;;;;;;9.49;100.00;102235.63;5252867;28;20021;-77
2023/02/16 11:44:31;;;;;;;41.83;32.47;;;;;;;9.50;100.00;102226.84;5251244;28;20029;-77
2023/02/16 11:47:33;;;;;;;38.28;31.90;;;;;;;9.69;100.00;102224.00;5250795;28;20059;-77
2023/02/16 11:50:24;;;;;;;39.13;33.13;;;;;;;9.72;100.00;102229.06;5249590;28;20067;-76
2023/02/16 11:53:12;;;;;;;43.58;32.22;;;;;;;9.63;100.00;102215.69;5249210;28;20092;-76
2023/02/16 11:55:48;;;;;;;38.25;31.38;;;;;;;9.71;100.00;102226.53;5248663;28;20048;-77
2023/02/16 11:58:26;;;;;;;36.67;30.40;;;;;;;9.88;100.00;102215.88;5253808;28;20020;-76
2023/02/16 12:01:20;;;;;;;37.05;31.02;;;;;;;10.16;100.00;102209.00;5231541;28;20026;-77
2023/02/16 12:04:11;;;;;;;40.60;31.27;;;;;;;10.23;100.00;102213.78;5251722;28;20087;-77
2023/02/16 12:07:28;;;;;;;35.38;30.95;;;;;;;10.43;100.00;102206.50;5249708;28;20494;-77
2023/02/16 12:10:26;;;;;;;38.00;30.00;;;;;;;10.38;100.00;102208.53;5252568;28;20052;-77
2023/02/16 12:13:20;;;;;;;35.40;30.00;;;;;;;10.52;100.00;102203.28;5253432;28;20013;-78
2023/02/16 12:16:08;;;;;;;39.45;30.60;;;;;;;10.61;100.00;102200.09;5238873;28;20033;-78
2023/02/16 12:18:57;;;;;;;37.97;30.10;;;;;;;10.71;100.00;102205.56;5245861;28;20078;-77
2023/02/16 12:21:39;;;;;;;36.38;28.92;;;;;;;10.74;100.00;102199.31;5245480;28;20038;-77
2023/02/16 12:24:41;;;;;;;33.25;28.73;;;;;;;10.90;100.00;102192.97;5244466;28;20022;-77
2023/02/16 12:27:27;;;;;;;34.60;29.02;;;;;;;10.98;100.00;102175.91;5244879;28;20474;-78
2023/02/16 12:30:08;;;;;;;34.13;28.73;;;;;;;10.98;100.00;102170.66;5242493;28;20029;-78
2023/02/16 12:33:02;;;;;;;35.38;29.17;;;;;;;11.03;100.00;102173.84;5227322;28;20044;-77
2023/02/16 12:35:44;;;;;;;33.35;28.50;;;;;;;11.03;100.00;102172.06;5245877;28;20411;-78